createdAt,value
2019-02-06T00:01:40.776Z,93.10
2019-02-06T00:04:48.161Z,94.03
2019-02-06T00:07:52.463Z,94.16
2019-02-06T00:10:56.891Z,93.65
2019-02-06T00:14:01.173Z,93.40
2019-02-06T00:17:06.051Z,93.69
2019-02-06T00:20:10.733Z,93.84
2019-02-06T00:23:15.015Z,93.44
2019-02-06T00:26:19.341Z,93.00
2019-02-06T00:29:23.629Z,93.24
2019-02-06T00:32:27.941Z,93.40
2019-02-06T00:35:32.222Z,93.15
2019-02-06T00:38:36.677Z,93.30
2019-02-06T00:41:41.181Z,93.41
2019-02-06T00:44:45.463Z,93.31
2019-02-06T00:47:49.882Z,93.09
2019-02-06T00:50:54.459Z,93.36
2019-02-06T00:53:58.747Z,93.05
2019-02-06T00:57:06.026Z,92.70
2019-02-06T01:00:16.121Z,92.45
2019-02-06T01:03:20.593Z,92.60
2019-02-06T01:06:24.976Z,92.59
2019-02-06T01:09:29.251Z,92.58
2019-02-06T01:12:33.551Z,92.64
2019-02-06T01:15:37.825Z,92.69
2019-02-06T01:18:42.143Z,92.08
2019-02-06T01:21:46.607Z,92.25
2019-02-06T01:24:50.883Z,92.46
2019-02-06T01:27:55.195Z,92.92
2019-02-06T01:31:10.539Z,92.88
2019-02-06T01:34:14.834Z,92.77
2019-02-06T01:37:19.129Z,92.71
2019-02-06T01:40:27.503Z,92.48
2019-02-06T01:43:34.063Z,92.50
2019-02-06T01:46:38.557Z,92.31
2019-02-06T01:49:44.813Z,92.16
2019-02-06T01:52:49.551Z,92.18
2019-02-06T01:55:53.857Z,92.35
2019-02-06T01:58:58.323Z,92.43
2019-02-06T02:02:02.618Z,92.40
2019-02-06T02:05:07.138Z,92.40
2019-02-06T02:08:11.714Z,92.51
2019-02-06T02:11:16.178Z,92.56
2019-02-06T02:14:20.442Z,92.57
2019-02-06T02:17:25.004Z,92.39
2019-02-06T02:20:32.091Z,92.38
2019-02-06T02:23:36.367Z,92.50
2019-02-06T02:26:40.667Z,92.49
2019-02-06T02:29:46.750Z,92.62
2019-02-06T02:32:51.166Z,92.77
2019-02-06T02:35:55.713Z,92.57
2019-02-06T02:39:00.054Z,92.54
2019-02-06T02:42:04.350Z,92.75
2019-02-06T02:45:10.606Z,92.96
2019-02-06T02:48:14.935Z,92.91
2019-02-06T02:51:19.222Z,93.03
2019-02-06T02:54:23.785Z,93.03
2019-02-06T02:57:28.129Z,93.04
2019-02-06T03:00:51.872Z,92.97
2019-02-06T03:04:07.260Z,92.95
2019-02-06T03:07:11.641Z,92.72
2019-02-06T03:10:16.057Z,92.64
2019-02-06T03:13:20.488Z,92.89
2019-02-06T03:16:24.870Z,92.99
2019-02-06T03:19:29.150Z,92.86
2019-02-06T03:22:33.529Z,92.65
2019-02-06T03:25:37.899Z,92.67
2019-02-06T03:28:42.294Z,92.38
2019-02-06T03:31:46.588Z,92.47
2019-02-06T03:34:50.870Z,92.52
2019-02-06T03:37:56.049Z,92.63
2019-02-06T03:41:00.439Z,92.22
2019-02-06T03:44:04.992Z,92.40
2019-02-06T03:47:09.381Z,92.38
2019-02-06T03:50:15.779Z,92.17
2019-02-06T03:53:20.272Z,91.86
2019-02-06T03:56:24.815Z,92.26
2019-02-06T03:59:31.048Z,91.97
2019-02-06T04:02:35.425Z,91.80
2019-02-06T04:05:39.761Z,91.91
2019-02-06T04:08:44.047Z,91.95
2019-02-06T04:11:48.375Z,91.69
2019-02-06T04:14:52.659Z,91.75
2019-02-06T04:17:56.971Z,91.53
2019-02-06T04:21:01.485Z,91.48
2019-02-06T04:24:05.997Z,91.72
2019-02-06T04:27:10.317Z,91.32
2019-02-06T04:30:15.473Z,91.36
2019-02-06T04:33:21.306Z,91.51
2019-02-06T04:36:25.669Z,91.46
2019-02-06T04:39:29.963Z,91.67
2019-02-06T04:42:36.788Z,91.81
2019-02-06T04:45:41.459Z,92.15
2019-02-06T04:48:45.723Z,92.17
2019-02-06T04:51:50.183Z,91.97
2019-02-06T04:54:54.868Z,91.86
2019-02-06T04:57:59.165Z,92.00
2019-02-06T05:01:03.610Z,92.08
2019-02-06T05:04:08.469Z,91.96
2019-02-06T05:07:19.447Z,92.05
2019-02-06T05:10:21.719Z,92.27
2019-02-06T05:13:26.013Z,92.28
2019-02-06T05:16:30.551Z,92.19
2019-02-06T05:19:34.837Z,92.28
2019-02-06T05:22:39.150Z,92.35
2019-02-06T05:25:43.550Z,92.65
2019-02-06T05:28:47.830Z,92.61
2019-02-06T05:31:52.160Z,92.69
2019-02-06T05:34:57.536Z,92.82
2019-02-06T05:38:01.996Z,92.91
2019-02-06T05:41:07.328Z,92.59
2019-02-06T05:44:11.619Z,92.66
2019-02-06T05:47:17.032Z,92.69
2019-02-06T05:50:21.437Z,92.65
2019-02-06T05:53:25.909Z,92.91
2019-02-06T05:56:30.274Z,92.80
2019-02-06T05:59:34.688Z,92.60
2019-02-06T06:02:39.055Z,92.72
2019-02-06T06:05:43.447Z,92.93
2019-02-06T06:08:47.804Z,92.55
2019-02-06T06:11:52.111Z,92.85
2019-02-06T06:14:56.481Z,92.52
2019-02-06T06:18:00.960Z,92.69
2019-02-06T06:21:05.247Z,92.90
2019-02-06T06:24:09.541Z,93.10
2019-02-06T06:27:14.133Z,92.92
2019-02-06T06:30:19.535Z,92.89
2019-02-06T06:33:23.840Z,92.50
2019-02-06T06:36:28.290Z,92.65
2019-02-06T06:39:32.578Z,92.39
2019-02-06T06:42:36.941Z,92.65
2019-02-06T06:45:41.815Z,92.70
2019-02-06T06:48:49.083Z,93.05
2019-02-06T06:51:53.473Z,93.09
2019-02-06T06:54:57.785Z,93.25
2019-02-06T06:58:02.067Z,92.96
2019-02-06T07:01:06.364Z,93.12
2019-02-06T07:04:10.693Z,93.12
2019-02-06T07:07:17.778Z,93.17
2019-02-06T07:10:22.097Z,92.73
2019-02-06T07:13:26.381Z,91.90
2019-02-06T07:16:33.677Z,92.10
2019-02-06T07:19:38.027Z,91.94
2019-02-06T07:22:42.333Z,91.92
2019-02-06T07:25:46.653Z,92.15
2019-02-06T07:28:51.173Z,91.94
2019-02-06T07:31:55.593Z,92.19
2019-02-06T07:34:59.927Z,92.46
2019-02-06T07:38:06.074Z,92.53
2019-02-06T07:41:10.556Z,92.33
2019-02-06T07:44:14.846Z,92.33
2019-02-06T07:47:19.253Z,92.55
2019-02-06T07:50:26.049Z,92.98
2019-02-06T07:53:30.829Z,93.27
2019-02-06T07:56:35.245Z,92.90
2019-02-06T07:59:39.535Z,93.20
2019-02-06T08:02:44.415Z,93.25
2019-02-06T08:05:48.982Z,93.27
2019-02-06T08:08:53.473Z,93.32
2019-02-06T08:11:58.241Z,93.24
2019-02-06T08:15:02.817Z,93.11
2019-02-06T08:18:07.772Z,93.23
2019-02-06T08:21:15.133Z,93.46
2019-02-06T08:24:19.545Z,93.55
2019-02-06T08:27:26.310Z,93.81
2019-02-06T08:30:35.320Z,93.78
2019-02-06T08:33:39.711Z,94.04
2019-02-06T08:36:44.021Z,94.03
2019-02-06T08:39:48.304Z,93.89
2019-02-06T08:42:52.809Z,93.88
2019-02-06T08:45:57.177Z,94.11
2019-02-06T08:49:04.071Z,94.13
2019-02-06T08:52:08.393Z,94.17
2019-02-06T08:55:15.695Z,94.09
2019-02-06T08:58:20.088Z,94.25
2019-02-06T09:01:24.762Z,94.43
2019-02-06T09:04:29.153Z,94.36
2019-02-06T09:07:33.430Z,94.37
2019-02-06T09:10:38.277Z,94.36
2019-02-06T09:13:42.554Z,94.45
2019-02-06T09:16:46.850Z,94.21
2019-02-06T09:19:51.435Z,94.44
2019-02-06T09:22:56.651Z,94.65
2019-02-06T09:26:01.159Z,94.46
2019-02-06T09:29:06.013Z,94.47
2019-02-06T09:32:10.525Z,94.77
2019-02-06T09:35:15.149Z,95.03
2019-02-06T09:38:22.595Z,94.94
2019-02-06T09:41:26.891Z,95.00
2019-02-06T09:44:31.181Z,94.88
2019-02-06T09:47:35.515Z,94.90
2019-02-06T09:50:39.838Z,94.98
2019-02-06T09:53:44.207Z,95.01
2019-02-06T09:56:50.637Z,94.93
2019-02-06T09:59:54.515Z,95.01
2019-02-06T10:02:58.823Z,95.38
2019-02-06T10:06:03.159Z,95.42
2019-02-06T10:09:09.346Z,95.68
2019-02-06T10:12:13.629Z,95.39
2019-02-06T10:15:20.730Z,95.55
2019-02-06T10:18:28.275Z,95.80
2019-02-06T10:21:32.669Z,95.37
2019-02-06T10:24:37.107Z,95.20
2019-02-06T10:27:41.413Z,95.36
2019-02-06T10:30:47.980Z,95.35
2019-02-06T10:33:52.381Z,95.30
2019-02-06T10:36:56.737Z,94.97
2019-02-06T10:40:01.133Z,94.60
2019-02-06T10:43:06.017Z,94.58
2019-02-06T10:46:10.790Z,94.84
2019-02-06T10:49:15.345Z,94.90
2019-02-06T10:52:19.646Z,94.93
2019-02-06T10:55:24.243Z,94.94
2019-02-06T10:58:28.758Z,94.66
2019-02-06T11:01:33.153Z,94.80
2019-02-06T11:04:37.957Z,94.69
2019-02-06T11:07:42.267Z,94.68
2019-02-06T11:10:46.948Z,94.71
2019-02-06T11:13:51.636Z,94.59
2019-02-06T11:16:57.193Z,94.46
2019-02-06T11:20:01.512Z,94.39
2019-02-06T11:23:07.440Z,94.29
2019-02-06T11:26:11.838Z,94.54
2019-02-06T11:29:16.149Z,94.68
2019-02-06T11:32:20.432Z,94.78
2019-02-06T11:35:24.710Z,94.93
2019-02-06T11:38:32.073Z,95.01
2019-02-06T11:41:36.566Z,95.12
2019-02-06T11:44:40.865Z,94.85
2019-02-06T11:47:50.186Z,95.06
2019-02-06T11:50:54.532Z,95.22
2019-02-06T11:53:58.857Z,95.38
2019-02-06T11:57:03.159Z,95.33
2019-02-06T12:00:13.991Z,95.27
2019-02-06T12:03:22.041Z,95.28
2019-02-06T12:06:24.971Z,95.27
2019-02-06T12:09:29.267Z,95.17
2019-02-06T12:12:33.965Z,95.60
2019-02-06T12:15:38.234Z,95.87
2019-02-06T12:18:42.525Z,95.74
2019-02-06T12:21:47.382Z,95.86
2019-02-06T12:24:51.654Z,95.83
2019-02-06T12:27:56.263Z,95.92
2019-02-06T12:31:01.151Z,95.90
2019-02-06T12:34:05.451Z,96.04
2019-02-06T12:37:09.744Z,96.04
2019-02-06T12:40:21.550Z,95.99
2019-02-06T12:43:20.639Z,96.17
2019-02-06T12:46:24.979Z,96.31
2019-02-06T12:49:29.266Z,96.36
2019-02-06T12:52:33.555Z,96.31
2019-02-06T12:55:39.003Z,96.34
2019-02-06T12:58:43.321Z,96.40
2019-02-06T13:01:47.648Z,96.27
2019-02-06T13:04:51.955Z,96.17
2019-02-06T13:07:56.347Z,95.80
2019-02-06T13:11:00.680Z,95.66
2019-02-06T13:14:05.263Z,95.77
2019-02-06T13:17:09.590Z,95.89
2019-02-06T13:20:16.880Z,96.20
2019-02-06T13:23:21.242Z,96.46
2019-02-06T13:26:25.564Z,96.52
2019-02-06T13:29:29.909Z,96.55
2019-02-06T13:32:34.218Z,96.65
2019-02-06T13:35:41.164Z,96.39
2019-02-06T13:38:45.456Z,96.25
2019-02-06T13:41:50.018Z,96.05
2019-02-06T13:44:57.685Z,96.22
2019-02-06T13:48:01.945Z,96.16
2019-02-06T13:51:16.288Z,95.76
2019-02-06T13:54:12.664Z,96.04
2019-02-06T13:57:18.244Z,96.25
2019-02-06T14:00:26.388Z,96.41
2019-02-06T14:03:30.787Z,96.46
2019-02-06T14:06:35.236Z,96.34
2019-02-06T14:09:39.493Z,96.29
2019-02-06T14:12:43.770Z,95.91
2019-02-06T14:15:50.707Z,96.00
2019-02-06T14:18:55.019Z,95.67
2019-02-06T14:21:59.441Z,95.90
2019-02-06T14:25:56.848Z,96.07
2019-02-06T14:29:53.374Z,96.32
2019-02-06T14:33:41.238Z,96.02
2019-02-06T14:37:02.097Z,96.38
2019-02-06T14:40:16.323Z,96.29
2019-02-06T14:44:06.595Z,96.42
2019-02-06T14:47:57.638Z,96.46
2019-02-06T14:51:44.605Z,96.50
2019-02-06T14:55:11.161Z,96.27
2019-02-06T14:58:50.620Z,96.31
2019-02-06T15:02:45.047Z,96.44
2019-02-06T15:06:39.163Z,96.35
2019-02-06T15:10:27.127Z,96.18
2019-02-06T15:13:59.931Z,96.37
2019-02-06T15:17:36.910Z,96.50
2019-02-06T15:21:18.944Z,96.55
2019-02-06T15:24:58.057Z,96.82
2019-02-06T15:28:33.035Z,96.89
2019-02-06T15:32:20.254Z,96.70
2019-02-06T15:35:57.665Z,96.72
2019-02-06T15:39:40.684Z,97.12
2019-02-06T15:43:02.835Z,97.40
2019-02-06T15:46:42.729Z,97.45
2019-02-06T15:50:03.330Z,97.68
2019-02-06T15:53:24.276Z,97.78
2019-02-06T15:57:10.664Z,97.72
2019-02-06T16:00:48.144Z,97.79
2019-02-06T16:04:26.622Z,97.98
2019-02-06T16:08:16.572Z,98.14
2019-02-06T16:11:48.284Z,98.28
2019-02-06T16:15:40.725Z,98.50
2019-02-06T16:19:07.236Z,98.45
2019-02-06T16:22:39.917Z,98.60
2019-02-06T16:26:20.991Z,98.64
2019-02-06T16:30:24.503Z,98.62
2019-02-06T16:33:57.545Z,98.68
2019-02-06T16:37:22.367Z,98.73
2019-02-06T16:40:58.704Z,98.86
2019-02-06T16:44:29.602Z,98.87
2019-02-06T16:48:02.945Z,98.85
2019-02-06T16:51:21.289Z,98.83
2019-02-06T16:55:15.838Z,98.86
2019-02-06T16:59:09.764Z,98.94
2019-02-06T17:03:05.383Z,99.03
2019-02-06T17:06:56.784Z,99.08
2019-02-06T17:10:44.414Z,99.25
2019-02-06T17:14:11.918Z,99.40
2019-02-06T17:17:29.730Z,99.37
2019-02-06T17:21:13.312Z,99.18
2019-02-06T17:24:54.361Z,99.07
2019-02-06T17:28:47.992Z,99.11
2019-02-06T17:32:30.310Z,99.08
2019-02-06T17:36:04.629Z,98.97
2019-02-06T17:39:42.722Z,98.99
2019-02-06T17:43:06.249Z,98.94
2019-02-06T17:46:28.115Z,98.95
2019-02-06T17:50:19.851Z,98.94
2019-02-06T17:54:04.944Z,98.84
2019-02-06T17:57:14.583Z,98.82
2019-02-06T18:00:28.276Z,98.66
2019-02-06T18:03:36.455Z,98.62
2019-02-06T18:06:41.073Z,98.57
2019-02-06T18:09:45.415Z,98.37
2019-02-06T18:12:49.717Z,98.38
2019-02-06T18:15:54.204Z,98.55
2019-02-06T18:18:58.995Z,98.65
2019-02-06T18:22:03.470Z,98.60
2019-02-06T18:25:08.148Z,98.62
2019-02-06T18:28:12.977Z,98.60
2019-02-06T18:31:17.459Z,98.25
2019-02-06T18:34:21.781Z,98.38
2019-02-06T18:37:26.280Z,98.41
2019-02-06T18:40:30.780Z,98.57
2019-02-06T18:43:37.803Z,98.63
2019-02-06T18:46:42.214Z,98.68
2019-02-06T18:49:46.572Z,98.66
2019-02-06T18:52:51.164Z,98.79
2019-02-06T18:55:55.626Z,98.64
2019-02-06T18:59:00.131Z,98.33
2019-02-06T19:02:04.974Z,98.41
2019-02-06T19:05:11.032Z,98.54
2019-02-06T19:08:15.649Z,98.57
2019-02-06T19:11:20.124Z,98.61
2019-02-06T19:14:24.490Z,98.56
2019-02-06T19:17:28.857Z,98.61
2019-02-06T19:20:35.672Z,98.64
2019-02-06T19:23:39.260Z,98.57
2019-02-06T19:26:43.955Z,98.60
2019-02-06T19:29:48.351Z,98.63
2019-02-06T19:32:52.914Z,98.49
2019-02-06T19:35:57.272Z,98.51
2019-02-06T19:39:01.934Z,98.49
2019-02-06T19:42:06.616Z,98.44
2019-02-06T19:45:11.713Z,98.54
2019-02-06T19:48:18.975Z,98.61
2019-02-06T19:51:22.521Z,98.68
2019-02-06T19:54:26.921Z,98.65
2019-02-06T19:57:31.444Z,98.49
2019-02-06T20:00:37.565Z,98.43
2019-02-06T20:03:42.448Z,98.33
2019-02-06T20:06:47.121Z,98.38
2019-02-06T20:09:51.923Z,98.48
2019-02-06T20:12:56.958Z,98.47
2019-02-06T20:16:01.503Z,98.51
2019-02-06T20:19:06.255Z,98.43
2019-02-06T20:22:11.092Z,98.49
2019-02-06T20:25:16.212Z,98.47
2019-02-06T20:28:20.824Z,98.56
2019-02-06T20:31:25.904Z,98.49
2019-02-06T20:34:30.768Z,98.29
2019-02-06T20:37:35.510Z,98.38
2019-02-06T20:40:40.271Z,98.56
2019-02-06T20:43:45.168Z,98.32
2019-02-06T20:46:52.275Z,98.22
2019-02-06T20:49:56.855Z,98.23
2019-02-06T20:53:01.535Z,98.29
2019-02-06T20:56:06.279Z,98.39
2019-02-06T20:59:10.882Z,98.41
2019-02-06T21:02:15.439Z,98.51
2019-02-06T21:05:20.194Z,98.46
2019-02-06T21:08:24.719Z,98.55
2019-02-06T21:11:29.273Z,98.51
2019-02-06T21:14:33.789Z,98.44
2019-02-06T21:17:38.261Z,98.50
2019-02-06T21:20:42.860Z,98.46
2019-02-06T21:23:47.199Z,98.53
2019-02-06T21:26:51.598Z,98.61
2019-02-06T21:29:55.906Z,98.54
2019-02-06T21:33:00.346Z,98.54
2019-02-06T21:36:04.873Z,98.61
2019-02-06T21:39:10.374Z,98.65
2019-02-06T21:42:14.720Z,98.61
2019-02-06T21:45:19.369Z,98.59
2019-02-06T21:48:23.759Z,98.46
2019-02-06T21:51:28.051Z,98.26
2019-02-06T21:54:32.734Z,98.44
2019-02-06T21:57:37.012Z,98.48
2019-02-06T22:00:42.529Z,98.46
2019-02-06T22:03:46.840Z,98.49
2019-02-06T22:06:51.134Z,98.52
2019-02-06T22:09:56.403Z,98.59
2019-02-06T22:13:01.240Z,98.62
2019-02-06T22:16:05.783Z,98.57
2019-02-06T22:19:10.091Z,98.62
2019-02-06T22:22:14.555Z,98.70
2019-02-06T22:25:18.910Z,98.59
2019-02-06T22:28:23.203Z,98.46
2019-02-06T22:31:27.510Z,98.30
2019-02-06T22:34:32.186Z,98.07
2019-02-06T22:37:36.596Z,98.12
2019-02-06T22:40:40.946Z,97.88
2019-02-06T22:43:45.262Z,97.79
2019-02-06T22:46:49.563Z,97.91
2019-02-06T22:49:53.988Z,97.90
2019-02-06T22:52:58.383Z,97.77
2019-02-06T22:56:02.704Z,97.66
2019-02-06T22:59:07.011Z,97.57
2019-02-06T23:02:14.286Z,97.38
2019-02-06T23:05:18.644Z,97.34
2019-02-06T23:08:22.950Z,97.42
2019-02-06T23:11:27.436Z,97.31
2019-02-06T23:14:31.723Z,97.34
2019-02-06T23:17:36.030Z,97.53
2019-02-06T23:20:41.327Z,97.63
2019-02-06T23:23:46.582Z,97.59
2019-02-06T23:26:51.210Z,97.18
2019-02-06T23:29:55.902Z,96.72
2019-02-06T23:33:00.282Z,96.75
2019-02-06T23:36:05.228Z,96.79
2019-02-06T23:39:15.828Z,96.83
2019-02-06T23:42:20.260Z,96.90
2019-02-06T23:45:24.620Z,96.63
2019-02-06T23:48:28.917Z,96.73
2019-02-06T23:51:33.328Z,96.66
2019-02-06T23:54:37.731Z,96.73
2019-02-06T23:57:42.129Z,96.79
